CheckWX is a tool to help pilots better visualize weather data.  It is not intended as a substitute for an official pre-flight weather briefing.

08:38:40 UTC

KBMG TAF
Monroe County Airport
Bloomington, Indiana, USA
KBMG 150747Z 1508/1606 VRB03KT 4SM BR BKN090 FM150900 VRB03KT P6SM SCT045 FM151700 31006KT P6SM FEW250 AMD LTD TO CLD VIS AND WIND TIL 151400

Nov-15@
08:00 UTC

Nov-15 @ 08:00 UTC

Nov-15@
09:00 UTC

Nov-15 @ 09:00 UTC

KBMG 150747Z 1508/1606 VRB03KT 4SM BR BKN090
Wind
  • Variable at 3 KTS
Conditions
Mist
Cloud Levels
  • Broken at 9,000' AGL

Nov-15@
09:00 UTC

Nov-15 @ 09:00 UTC

Nov-15@
17:00 UTC

Nov-15 @ 17:00 UTC

FM150900 VRB03KT P6SM SCT045

From

From Standard forecast or significant change

Wind
  • Variable at 3 KTS
Cloud Levels
  • Scattered at 4,500' AGL

Nov-15@
17:00 UTC

Nov-15 @ 17:00 UTC

Nov-16@
06:00 UTC

Nov-16 @ 06:00 UTC

FM151700 31006KT P6SM FEW250 AMD LTD TO CLD VIS AND WIND TIL 151400

From

From Standard forecast or significant change

Wind
  • 310° at 6 KTS
Cloud Levels
  • Few at 25,000' AGL